createdAt,value
2022-11-03T00:02:08.047Z,97009.81
2022-11-03T00:04:34.907Z,97004.75
2022-11-03T00:07:01.731Z,97002.94
2022-11-03T00:09:28.503Z,96998.28
2022-11-03T00:11:55.321Z,96993.88
2022-11-03T00:14:22.182Z,96998.28
2022-11-03T00:16:49.279Z,96990.25
2022-11-03T00:19:17.310Z,96992.22
2022-11-03T00:21:44.839Z,96986.19
2022-11-03T00:24:12.858Z,96979.28
2022-11-03T00:26:39.804Z,96976.81
2022-11-03T00:29:13.199Z,96973.94
2022-11-03T00:31:43.309Z,96969.03
2022-11-03T00:34:11.009Z,96982.78
2022-11-03T00:36:43.734Z,96970.53
2022-11-03T00:39:11.297Z,96970.00
2022-11-03T00:41:38.874Z,96967.72
2022-11-03T00:44:06.155Z,96971.66
2022-11-03T00:46:35.944Z,96962.16
2022-11-03T00:49:05.014Z,96956.44
2022-11-03T00:51:34.358Z,96949.69
2022-11-03T00:54:03.451Z,96955.53
2022-11-03T00:56:39.943Z,96951.47
2022-11-03T00:59:09.159Z,96942.13
2022-11-03T01:01:45.297Z,96946.56
2022-11-03T01:04:32.930Z,96944.44
2022-11-03T01:07:01.168Z,96939.22
2022-11-03T01:09:33.854Z,96945.41
2022-11-03T01:12:13.895Z,96925.78
2022-11-03T01:14:46.204Z,96941.47
2022-11-03T01:17:25.781Z,96948.78
2022-11-03T01:19:53.009Z,96938.03
2022-11-03T01:22:20.648Z,96928.56
2022-11-03T01:24:48.290Z,96926.25
2022-11-03T01:27:18.767Z,96929.81
2022-11-03T01:29:46.017Z,96928.03
2022-11-03T01:32:13.247Z,96911.34
2022-11-03T01:34:40.309Z,96912.06
2022-11-03T01:37:07.436Z,96914.69
2022-11-03T01:39:34.453Z,96919.97
2022-11-03T01:42:01.394Z,96913.84
2022-11-03T01:44:40.137Z,96915.00
2022-11-03T01:47:18.722Z,96918.88
2022-11-03T01:50:14.843Z,96906.63
2022-11-03T01:52:51.355Z,96913.81
2022-11-03T01:55:26.549Z,96897.31
2022-11-03T01:58:03.363Z,96891.53
2022-11-03T02:00:30.180Z,96900.34
2022-11-03T02:02:57.153Z,96906.22
2022-11-03T02:05:25.909Z,96906.88
2022-11-03T02:08:18.282Z,96902.94
2022-11-03T02:10:48.628Z,96895.09
2022-11-03T02:13:22.256Z,96893.84
2022-11-03T02:15:56.370Z,96895.19
2022-11-03T02:18:29.511Z,96887.72
2022-11-03T02:21:16.226Z,96873.00
2022-11-03T02:24:12.924Z,96870.69
2022-11-03T02:26:41.040Z,96868.69
2022-11-03T02:29:07.896Z,96857.25
2022-11-03T02:31:42.648Z,96847.59
2022-11-03T02:34:31.162Z,96848.72
2022-11-03T02:37:16.978Z,96849.69
2022-11-03T02:39:47.156Z,96851.34
2022-11-03T02:42:15.369Z,96842.50
2022-11-03T02:44:44.672Z,96844.16
2022-11-03T02:47:14.115Z,96835.63
2022-11-03T02:49:51.162Z,96842.16
2022-11-03T02:52:45.123Z,96839.91
2022-11-03T02:55:14.684Z,96825.22
2022-11-03T02:57:53.015Z,96823.44
2022-11-03T03:00:20.988Z,96816.44
2022-11-03T03:02:54.003Z,96809.28
2022-11-03T03:05:25.521Z,96812.81
2022-11-03T03:07:58.077Z,96802.34
2022-11-03T03:10:30.891Z,96793.50
2022-11-03T03:12:58.734Z,96791.53
2022-11-03T03:15:57.689Z,96784.84
2022-11-03T03:18:59.155Z,96770.03
2022-11-03T03:21:32.554Z,96778.38
2022-11-03T03:24:09.786Z,96776.56
2022-11-03T03:26:44.365Z,96777.53
2022-11-03T03:29:35.331Z,96773.63
2022-11-03T03:32:07.720Z,96770.34
2022-11-03T03:34:38.392Z,96784.44
2022-11-03T03:37:06.881Z,96775.94
2022-11-03T03:39:38.403Z,96768.09
2022-11-03T03:42:08.797Z,96776.56
2022-11-03T03:44:37.894Z,96783.78
2022-11-03T03:47:21.400Z,96788.03
2022-11-03T03:49:48.349Z,96785.25
2022-11-03T03:52:16.095Z,96785.44
2022-11-03T03:54:42.866Z,96778.19
2022-11-03T03:57:16.156Z,96779.50
2022-11-03T03:59:44.196Z,96776.91
2022-11-03T04:02:12.520Z,96775.88
2022-11-03T04:04:39.927Z,96768.84
2022-11-03T04:07:25.469Z,96770.94
2022-11-03T04:09:52.690Z,96764.38
2022-11-03T04:12:37.840Z,96768.47
2022-11-03T04:15:24.026Z,96757.25
2022-11-03T04:18:10.785Z,96748.78
2022-11-03T04:20:55.992Z,96747.84
2022-11-03T04:23:22.812Z,96754.34
2022-11-03T04:25:54.293Z,96760.72
2022-11-03T04:28:21.471Z,96751.25
2022-11-03T04:30:48.374Z,96749.44
2022-11-03T04:33:20.026Z,96754.81
2022-11-03T04:35:48.228Z,96745.84
2022-11-03T04:38:14.898Z,96742.91
2022-11-03T04:40:55.149Z,96733.25
2022-11-03T04:43:31.568Z,96735.69
2022-11-03T04:45:58.476Z,96729.00
2022-11-03T04:48:27.812Z,96728.84
2022-11-03T04:50:58.766Z,96729.97
2022-11-03T04:53:31.322Z,96725.16
2022-11-03T04:56:00.457Z,96721.22
2022-11-03T04:58:35.327Z,96713.69
2022-11-03T05:01:04.194Z,96708.78
2022-11-03T05:03:34.986Z,96713.69
2022-11-03T05:06:22.235Z,96710.41
2022-11-03T05:08:54.638Z,96702.53
2022-11-03T05:11:42.422Z,96703.25
2022-11-03T05:14:22.561Z,96700.31
2022-11-03T05:16:53.540Z,96694.28
2022-11-03T05:19:27.666Z,96690.22
2022-11-03T05:21:56.389Z,96688.94
2022-11-03T05:24:26.026Z,96686.69
2022-11-03T05:26:56.180Z,96683.91
2022-11-03T05:29:35.401Z,96686.72
2022-11-03T05:32:02.436Z,96685.44
2022-11-03T05:34:52.792Z,96675.19
2022-11-03T05:37:26.346Z,96678.28
2022-11-03T05:40:03.891Z,96677.78
2022-11-03T05:42:40.271Z,96675.19
2022-11-03T05:45:22.879Z,96670.63
2022-11-03T05:47:53.713Z,96666.84
2022-11-03T05:50:24.988Z,96662.28
2022-11-03T05:53:04.171Z,96659.69
2022-11-03T05:55:34.092Z,96652.47
2022-11-03T05:58:37.235Z,96654.41
2022-11-03T06:01:36.843Z,96656.38
2022-11-03T06:04:26.503Z,96655.41
2022-11-03T06:07:00.142Z,96655.03
2022-11-03T06:09:27.409Z,96655.03
2022-11-03T06:11:57.697Z,96644.50
2022-11-03T06:14:27.093Z,96650.38
2022-11-03T06:17:00.658Z,96647.38
2022-11-03T06:19:32.416Z,96647.81
2022-11-03T06:22:15.729Z,96646.34
2022-11-03T06:24:43.563Z,96644.03
2022-11-03T06:27:19.058Z,96642.97
2022-11-03T06:30:32.635Z,96640.44
2022-11-03T06:33:17.643Z,96643.84
2022-11-03T06:35:44.722Z,96641.16
2022-11-03T06:38:22.233Z,96636.50
2022-11-03T06:40:53.513Z,96640.34
2022-11-03T06:43:28.658Z,96639.78
2022-11-03T06:45:58.737Z,96641.69
2022-11-03T06:48:30.263Z,96629.53
2022-11-03T06:50:59.378Z,96641.09
2022-11-03T06:53:31.663Z,96629.84
2022-11-03T06:55:59.492Z,96632.06
2022-11-03T06:58:31.035Z,96627.41
2022-11-03T07:01:03.559Z,96627.75
2022-11-03T07:03:33.624Z,96624.31
2022-11-03T07:06:42.104Z,96619.22
2022-11-03T07:09:21.641Z,96617.47
2022-11-03T07:11:55.437Z,96625.28
2022-11-03T07:14:29.515Z,96618.97
2022-11-03T07:17:01.110Z,96614.41
2022-11-03T07:19:33.782Z,96622.16
2022-11-03T07:22:21.268Z,96610.25
2022-11-03T07:24:52.766Z,96621.28
2022-11-03T07:27:35.104Z,96618.28
2022-11-03T07:30:21.870Z,96608.63
2022-11-03T07:32:54.204Z,96611.78
2022-11-03T07:35:47.018Z,96619.81
2022-11-03T07:38:22.872Z,96612.50
2022-11-03T07:40:51.764Z,96618.56
2022-11-03T07:43:35.887Z,96606.16
2022-11-03T07:46:04.995Z,96603.38
2022-11-03T07:48:58.907Z,96595.69
2022-11-03T07:51:40.463Z,96586.59
2022-11-03T07:54:20.524Z,96594.84
2022-11-03T07:57:14.457Z,96583.66
2022-11-03T07:59:44.510Z,96580.84
2022-11-03T08:02:48.662Z,96574.88
2022-11-03T08:05:15.600Z,96575.56
2022-11-03T08:07:42.418Z,96567.44
2022-11-03T08:10:09.966Z,96566.16
2022-11-03T08:12:36.772Z,96558.59
2022-11-03T08:15:03.905Z,96552.31
2022-11-03T08:17:30.704Z,96540.09
2022-11-03T08:19:57.465Z,96531.97
2022-11-03T08:22:25.938Z,96541.63
2022-11-03T08:24:53.139Z,96528.41
2022-11-03T08:27:20.058Z,96519.66
2022-11-03T08:29:47.107Z,96523.66
2022-11-03T08:32:13.906Z,96517.41
2022-11-03T08:34:40.693Z,96521.53
2022-11-03T08:37:07.485Z,96516.41
2022-11-03T08:39:36.093Z,96513.03
2022-11-03T08:42:02.985Z,96502.16
2022-11-03T08:44:29.768Z,96503.28
2022-11-03T08:46:56.596Z,96499.78
2022-11-03T08:49:23.395Z,96494.34
2022-11-03T08:51:50.202Z,96494.78
2022-11-03T08:54:17.142Z,96488.41
2022-11-03T08:56:46.322Z,96483.03
2022-11-03T08:59:13.179Z,96480.13
2022-11-03T09:01:40.061Z,96483.19
2022-11-03T09:04:06.947Z,96482.75
2022-11-03T09:06:33.853Z,96475.13
2022-11-03T09:11:48.052Z,96477.53
2022-11-03T09:14:14.920Z,96471.50
2022-11-03T09:16:41.727Z,96467.16
2022-11-03T09:19:08.516Z,96466.06
2022-11-03T09:21:35.651Z,96470.91
2022-11-03T09:24:02.419Z,96468.47
2022-11-03T09:26:29.195Z,96464.44
2022-11-03T09:28:55.987Z,96451.13
2022-11-03T09:31:25.869Z,96441.28
2022-11-03T09:33:52.621Z,96440.13
2022-11-03T09:36:19.411Z,96441.00
2022-11-03T09:38:46.190Z,96443.41
2022-11-03T09:41:26.400Z,96443.47
2022-11-03T09:43:58.328Z,96438.22
2022-11-03T09:46:26.927Z,96443.78
2022-11-03T09:48:55.411Z,96440.16
2022-11-03T09:51:23.781Z,96429.03
2022-11-03T09:53:50.618Z,96425.09
2022-11-03T09:56:22.410Z,96432.34
2022-11-03T09:58:54.012Z,96436.44
2022-11-03T10:01:21.495Z,96426.75
2022-11-03T10:03:48.414Z,96435.22
2022-11-03T10:06:17.452Z,96424.22
2022-11-03T10:08:46.286Z,96421.06
2022-11-03T10:11:13.446Z,96419.09
2022-11-03T10:13:47.458Z,96421.56
2022-11-03T10:16:19.072Z,96415.06
2022-11-03T10:18:45.989Z,96403.72
2022-11-03T10:21:20.711Z,96394.19
2022-11-03T10:23:47.571Z,96386.72
2022-11-03T10:26:20.131Z,96392.38
2022-11-03T10:29:25.777Z,96393.56
2022-11-03T10:31:55.684Z,96382.47
2022-11-03T10:34:36.403Z,96383.84
2022-11-03T10:37:17.247Z,96372.78
2022-11-03T10:39:45.598Z,96361.78
2022-11-03T10:42:34.995Z,96354.66
2022-11-03T10:45:17.840Z,96363.19
2022-11-03T10:47:44.730Z,96354.72
2022-11-03T10:50:31.803Z,96356.34
2022-11-03T10:52:58.732Z,96351.38
2022-11-03T10:55:27.024Z,96352.09
2022-11-03T10:57:58.074Z,96352.00
2022-11-03T11:00:25.424Z,96344.28
2022-11-03T11:03:00.860Z,96344.72
2022-11-03T11:05:28.222Z,96343.69
2022-11-03T11:07:56.542Z,96335.94
2022-11-03T11:10:31.552Z,96341.75
2022-11-03T11:13:21.612Z,96338.28
2022-11-03T11:15:53.803Z,96329.44
2022-11-03T11:18:29.795Z,96330.81
2022-11-03T11:20:58.091Z,96331.97
2022-11-03T11:23:27.825Z,96333.09
2022-11-03T11:26:37.748Z,96333.09
2022-11-03T11:29:10.986Z,96328.69
2022-11-03T11:31:45.462Z,96316.78
2022-11-03T11:34:21.148Z,96315.81
2022-11-03T11:37:10.711Z,96324.59
2022-11-03T11:39:44.078Z,96315.78
2022-11-03T11:42:18.591Z,96310.16
2022-11-03T11:44:50.494Z,96311.94
2022-11-03T11:47:42.894Z,96297.22
2022-11-03T11:50:10.171Z,96290.50
2022-11-03T11:52:58.216Z,96288.91
2022-11-03T11:55:25.035Z,96308.25
2022-11-03T11:57:53.071Z,96300.88
2022-11-03T12:00:22.517Z,96288.78
2022-11-03T12:02:50.451Z,96273.50
2022-11-03T12:05:24.279Z,96271.69
2022-11-03T12:07:51.124Z,96255.88
2022-11-03T12:10:26.128Z,96259.69
2022-11-03T12:12:53.971Z,96266.56
2022-11-03T12:15:56.493Z,96251.19
2022-11-03T12:18:40.200Z,96267.72
2022-11-03T12:21:34.143Z,96268.00
2022-11-03T12:24:00.924Z,96257.88
2022-11-03T12:26:27.596Z,96248.56
2022-11-03T12:28:54.547Z,96242.09
2022-11-03T12:31:21.564Z,96249.94
2022-11-03T12:33:48.346Z,96252.13
2022-11-03T12:36:15.215Z,96247.94
2022-11-03T12:38:42.383Z,96246.69
2022-11-03T12:41:21.326Z,96236.00
2022-11-03T12:43:49.430Z,96216.69
2022-11-03T12:46:18.934Z,96208.78
2022-11-03T12:48:47.961Z,96213.97
2022-11-03T12:51:17.717Z,96216.50
2022-11-03T12:53:45.285Z,96207.91
2022-11-03T12:56:14.193Z,96216.31
2022-11-03T12:58:42.198Z,96215.94
2022-11-03T13:01:09.837Z,96205.47
2022-11-03T13:03:37.306Z,96204.44
2022-11-03T13:06:09.868Z,96193.38
2022-11-03T13:08:37.577Z,96191.97
2022-11-03T13:11:24.868Z,96185.50
2022-11-03T13:13:52.900Z,96185.38
2022-11-03T13:16:20.082Z,96182.59
2022-11-03T13:18:47.057Z,96175.47
2022-11-03T13:21:13.944Z,96157.84
2022-11-03T13:23:41.414Z,96169.53
2022-11-03T13:26:08.249Z,96165.38
2022-11-03T13:28:35.351Z,96159.97
2022-11-03T13:31:02.389Z,96168.34
2022-11-03T13:33:29.244Z,96168.59
2022-11-03T13:35:56.120Z,96156.50
2022-11-03T13:38:23.040Z,96145.19
2022-11-03T13:40:56.945Z,96123.53
2022-11-03T13:43:24.936Z,96124.25
2022-11-03T13:45:52.905Z,96139.03
2022-11-03T13:49:20.035Z,96132.94
2022-11-03T13:51:07.362Z,96122.25
2022-11-03T13:56:22.099Z,96117.72
2022-11-03T14:01:38.755Z,96102.59
2022-11-03T14:06:52.653Z,96102.75
2022-11-03T14:09:19.445Z,96103.66
2022-11-03T14:12:05.136Z,96103.84
2022-11-03T14:14:31.984Z,96087.94
2022-11-03T14:16:58.751Z,96082.16
2022-11-03T14:19:34.494Z,96081.22
2022-11-03T14:22:04.861Z,96077.41
2022-11-03T14:24:31.668Z,96073.84
2022-11-03T14:26:58.659Z,96078.69
2022-11-03T14:29:25.459Z,96069.72
2022-11-03T14:31:52.252Z,96061.66
2022-11-03T14:34:19.126Z,96055.22
2022-11-03T14:36:46.004Z,96067.53
2022-11-03T14:39:12.864Z,96064.38
2022-11-03T14:41:57.946Z,96058.31
2022-11-03T14:44:24.744Z,96062.00
2022-11-03T14:46:51.570Z,96047.03
2022-11-03T14:49:18.347Z,96054.84
2022-11-03T14:51:45.113Z,96059.50
2022-11-03T14:54:11.964Z,96059.63
2022-11-03T14:56:38.756Z,96046.19
2022-11-03T14:59:05.540Z,96026.28
2022-11-03T15:01:33.068Z,96013.53
2022-11-03T15:03:59.891Z,96011.84
2022-11-03T15:06:26.705Z,96021.75
2022-11-03T15:08:56.476Z,96023.47
2022-11-03T15:11:23.703Z,96036.72
2022-11-03T15:13:52.596Z,96036.00
2022-11-03T15:16:19.703Z,96031.44
2022-11-03T15:18:46.485Z,96027.00
2022-11-03T15:21:13.999Z,96025.81
2022-11-03T15:26:27.726Z,96014.47
2022-11-03T15:28:54.600Z,95996.41
2022-11-03T15:31:23.509Z,95979.81
2022-11-03T15:33:50.324Z,95971.69
2022-11-03T15:36:17.161Z,95973.72
2022-11-03T15:38:44.031Z,95960.00
2022-11-03T15:41:16.614Z,95962.69
2022-11-03T15:43:50.640Z,95945.31
2022-11-03T15:46:18.562Z,95928.31
2022-11-03T15:48:45.973Z,95941.06
2022-11-03T15:51:12.893Z,95942.28
2022-11-03T15:53:39.934Z,95941.13
2022-11-03T15:56:07.675Z,95936.25
2022-11-03T15:58:34.660Z,95934.50
2022-11-03T16:01:03.181Z,95925.56
2022-11-03T16:03:31.882Z,95933.91
2022-11-03T16:05:59.243Z,95916.91
2022-11-03T16:08:26.265Z,95910.03
2022-11-03T16:10:57.676Z,95891.03
2022-11-03T16:13:25.599Z,95894.09
2022-11-03T16:15:54.379Z,95888.22
2022-11-03T16:18:21.626Z,95897.56
2022-11-03T16:20:48.461Z,95906.91
2022-11-03T16:23:15.628Z,95900.06
2022-11-03T16:25:42.433Z,95896.47
2022-11-03T16:28:09.674Z,95884.38
2022-11-03T16:30:38.401Z,95882.63
2022-11-03T16:33:05.632Z,95888.06
2022-11-03T16:35:32.549Z,95883.22
2022-11-03T16:37:59.567Z,95879.16
2022-11-03T16:40:26.436Z,95863.78
2022-11-03T16:42:53.312Z,95857.78
2022-11-03T16:45:23.426Z,95866.59
2022-11-03T16:47:51.033Z,95851.41
2022-11-03T16:50:18.942Z,95832.97
2022-11-03T16:52:48.010Z,95835.41
2022-11-03T16:55:16.934Z,95831.41
2022-11-03T16:57:45.923Z,95832.97
2022-11-03T17:00:17.198Z,95823.66
2022-11-03T17:02:44.407Z,95821.03
2022-11-03T17:05:12.611Z,95821.28
2022-11-03T17:07:39.703Z,95811.38
2022-11-03T17:10:07.646Z,95804.66
2022-11-03T17:12:34.478Z,95799.44
2022-11-03T17:15:01.303Z,95785.63
2022-11-03T17:17:28.092Z,95775.72
2022-11-03T17:19:54.896Z,95776.72
2022-11-03T17:22:22.232Z,95778.09
2022-11-03T17:24:49.543Z,95770.34
2022-11-03T17:27:22.565Z,95764.06
2022-11-03T17:30:01.852Z,95757.13
2022-11-03T17:32:31.916Z,95759.84
2022-11-03T17:34:59.227Z,95754.66
2022-11-03T17:37:26.610Z,95752.22
2022-11-03T17:39:53.556Z,95743.97
2022-11-03T17:42:26.186Z,95741.00
2022-11-03T17:44:57.070Z,95735.72
2022-11-03T17:47:24.830Z,95732.28
2022-11-03T17:49:51.676Z,95720.97
2022-11-03T17:52:28.268Z,95708.66
2022-11-03T17:54:58.827Z,95695.13
2022-11-03T17:57:26.961Z,95690.53
2022-11-03T17:59:56.243Z,95686.28
2022-11-03T18:02:30.085Z,95687.81
2022-11-03T18:05:15.444Z,95692.69
2022-11-03T18:07:45.800Z,95681.75
2022-11-03T18:10:12.801Z,95683.78
2022-11-03T18:13:05.578Z,95671.63
2022-11-03T18:15:34.099Z,95675.72
2022-11-03T18:18:02.267Z,95678.50
2022-11-03T18:20:30.910Z,95661.56
2022-11-03T18:23:23.435Z,95653.44
2022-11-03T18:25:51.431Z,95651.19
2022-11-03T18:28:19.989Z,95636.44
2022-11-03T18:30:49.734Z,95630.31
2022-11-03T18:33:29.834Z,95618.03
2022-11-03T18:35:57.246Z,95616.19
2022-11-03T18:38:26.311Z,95607.38
2022-11-03T18:40:53.387Z,95606.28
2022-11-03T18:43:25.418Z,95607.66
2022-11-03T18:45:53.138Z,95611.69
2022-11-03T18:48:20.809Z,95602.38
2022-11-03T18:50:50.573Z,95594.34
2022-11-03T18:53:21.392Z,95584.28
2022-11-03T18:55:48.773Z,95585.06
2022-11-03T18:58:23.086Z,95597.25
2022-11-03T19:00:50.889Z,95602.97
2022-11-03T19:03:21.887Z,95603.22
2022-11-03T19:05:51.475Z,95610.38
2022-11-03T19:08:24.530Z,95608.03
2022-11-03T19:10:53.886Z,95606.00
2022-11-03T19:13:32.860Z,95591.47
2022-11-03T19:16:02.974Z,95590.22
2022-11-03T19:18:34.827Z,95583.59
2022-11-03T19:21:01.627Z,95573.66
2022-11-03T19:23:28.418Z,95556.19
2022-11-03T19:25:59.816Z,95556.13
2022-11-03T19:28:29.714Z,95550.00
2022-11-03T19:30:58.062Z,95537.66
2022-11-03T19:33:28.274Z,95528.34
2022-11-03T19:35:57.832Z,95523.63
2022-11-03T19:38:25.455Z,95522.69
2022-11-03T19:41:11.290Z,95526.88
2022-11-03T19:43:38.109Z,95519.78
2022-11-03T19:46:05.313Z,95510.44
2022-11-03T19:48:33.836Z,95504.28
2022-11-03T19:51:00.879Z,95509.47
2022-11-03T19:53:30.258Z,95505.97
2022-11-03T19:55:57.554Z,95495.81
2022-11-03T19:58:27.565Z,95478.66
2022-11-03T20:00:55.821Z,95482.88
2022-11-03T20:03:24.178Z,95482.28
2022-11-03T20:05:54.580Z,95480.69
2022-11-03T20:08:25.935Z,95472.50
2022-11-03T20:10:53.417Z,95470.00
2022-11-03T20:13:24.208Z,95458.69
2022-11-03T20:15:57.379Z,95457.00
2022-11-03T20:18:27.370Z,95452.91
2022-11-03T20:20:54.347Z,95452.91
2022-11-03T20:23:29.776Z,95456.78
2022-11-03T20:25:57.009Z,95450.41
2022-11-03T20:28:30.298Z,95440.25
2022-11-03T20:30:59.610Z,95440.94
2022-11-03T20:33:26.694Z,95438.22
2022-11-03T20:35:54.703Z,95434.00
2022-11-03T20:38:22.852Z,95432.16
2022-11-03T20:40:55.607Z,95438.47
2022-11-03T20:43:27.892Z,95430.78
2022-11-03T20:45:55.174Z,95425.16
2022-11-03T20:48:23.619Z,95418.41
2022-11-03T20:50:50.704Z,95430.63
2022-11-03T20:53:21.424Z,95407.34
2022-11-03T20:55:48.408Z,95405.75
2022-11-03T20:58:17.596Z,95394.31
2022-11-03T21:00:46.735Z,95381.03
2022-11-03T21:03:37.594Z,95377.91
2022-11-03T21:06:15.572Z,95364.31
2022-11-03T21:08:44.068Z,95352.19
2022-11-03T21:11:24.115Z,95361.94
2022-11-03T21:14:01.073Z,95354.34
2022-11-03T21:16:48.438Z,95350.00
2022-11-03T21:19:39.978Z,95340.38
2022-11-03T21:25:16.800Z,95321.97
2022-11-03T21:27:43.962Z,95320.78
2022-11-03T21:30:13.203Z,95325.75
2022-11-03T21:32:40.543Z,95336.16
2022-11-03T21:35:14.215Z,95334.00
2022-11-03T21:37:41.007Z,95332.41
2022-11-03T21:40:08.776Z,95334.56
2022-11-03T21:42:54.241Z,95337.66
2022-11-03T21:45:21.054Z,95329.28
2022-11-03T21:48:10.271Z,95319.44
2022-11-03T21:50:39.793Z,95316.13
2022-11-03T21:53:07.309Z,95300.34
2022-11-03T21:55:34.749Z,95306.03
2022-11-03T21:58:02.497Z,95308.81
2022-11-03T22:00:30.900Z,95296.69
2022-11-03T22:02:58.991Z,95302.16
2022-11-03T22:05:26.465Z,95306.19
2022-11-03T22:07:53.620Z,95321.97
2022-11-03T22:10:20.542Z,95333.03
2022-11-03T22:12:47.324Z,95339.00
2022-11-03T22:15:32.797Z,95331.13
2022-11-03T22:18:06.937Z,95316.72
2022-11-03T22:20:55.153Z,95313.50
2022-11-03T22:23:40.465Z,95324.69
2022-11-03T22:26:30.732Z,95328.69
2022-11-03T22:29:20.061Z,95320.47
2022-11-03T22:31:46.903Z,95315.81
2022-11-03T22:34:32.636Z,95333.94
2022-11-03T22:36:59.456Z,95330.78
2022-11-03T22:39:44.834Z,95312.69
2022-11-03T22:42:31.175Z,95327.69
2022-11-03T22:45:16.412Z,95309.84
2022-11-03T22:47:43.291Z,95331.13
2022-11-03T22:50:10.396Z,95336.16
2022-11-03T22:52:37.279Z,95345.44
2022-11-03T22:55:04.628Z,95343.34
2022-11-03T22:57:31.438Z,95347.16
2022-11-03T22:59:58.228Z,95354.34
2022-11-03T23:02:25.085Z,95370.06
2022-11-03T23:04:52.027Z,95339.38
2022-11-03T23:07:18.798Z,95356.97
2022-11-03T23:09:45.944Z,95362.81
2022-11-03T23:12:12.741Z,95388.44
2022-11-03T23:14:58.000Z,95379.75
2022-11-03T23:17:44.757Z,95395.88
2022-11-03T23:20:29.812Z,95398.84
2022-11-03T23:22:56.602Z,95400.81
2022-11-03T23:25:23.434Z,95410.88
2022-11-03T23:27:50.206Z,95430.78
2022-11-03T23:30:16.968Z,95442.63
2022-11-03T23:32:43.820Z,95450.94
2022-11-03T23:35:10.689Z,95453.69
2022-11-03T23:37:37.456Z,95454.16
2022-11-03T23:40:04.522Z,95458.13
2022-11-03T23:42:31.304Z,95455.59
2022-11-03T23:45:16.758Z,95465.19
2022-11-03T23:48:01.893Z,95465.22
2022-11-03T23:50:28.675Z,95469.91
2022-11-03T23:52:55.466Z,95466.72
2022-11-03T23:55:22.241Z,95476.44
2022-11-03T23:58:07.821Z,95477.69
